sensor_id;sensor_type;location;lat;lon;timestamp;temperature;humidity
10245;DHT22;5167;52.164;10.530;2023-09-19T00:01:40;20.10;20.90
10245;DHT22;5167;52.164;10.530;2023-09-19T00:04:07;20.00;20.80
10245;DHT22;5167;52.164;10.530;2023-09-19T00:06:38;20.00;19.80
10245;DHT22;5167;52.164;10.530;2023-09-19T00:09:04;20.00;20.50
10245;DHT22;5167;52.164;10.530;2023-09-19T00:11:30;19.90;20.20
10245;DHT22;5167;52.164;10.530;2023-09-19T00:13:56;19.90;20.00
10245;DHT22;5167;52.164;10.530;2023-09-19T00:16:22;19.80;18.90
10245;DHT22;5167;52.164;10.530;2023-09-19T00:18:48;19.80;20.00
10245;DHT22;5167;52.164;10.530;2023-09-19T00:21:14;19.80;19.90
10245;DHT22;5167;52.164;10.530;2023-09-19T00:23:40;19.70;20.10
10245;DHT22;5167;52.164;10.530;2023-09-19T00:26:06;19.60;20.30
10245;DHT22;5167;52.164;10.530;2023-09-19T00:28:32;19.50;21.00
10245;DHT22;5167;52.164;10.530;2023-09-19T00:30:57;19.50;21.20
10245;DHT22;5167;52.164;10.530;2023-09-19T00:33:27;19.60;21.40
10245;DHT22;5167;52.164;10.530;2023-09-19T00:35:53;19.50;21.20
10245;DHT22;5167;52.164;10.530;2023-09-19T00:38:21;19.50;24.80
10245;DHT22;5167;52.164;10.530;2023-09-19T00:40:48;19.40;22.00
10245;DHT22;5167;52.164;10.530;2023-09-19T00:43:16;19.40;22.00
10245;DHT22;5167;52.164;10.530;2023-09-19T00:45:43;19.50;21.40
10245;DHT22;5167;52.164;10.530;2023-09-19T00:48:09;19.50;22.10
10245;DHT22;5167;52.164;10.530;2023-09-19T00:50:36;19.40;21.40
10245;DHT22;5167;52.164;10.530;2023-09-19T00:53:02;19.40;21.20
10245;DHT22;5167;52.164;10.530;2023-09-19T00:55:34;19.30;21.40
10245;DHT22;5167;52.164;10.530;2023-09-19T00:58:00;19.30;21.60
10245;DHT22;5167;52.164;10.530;2023-09-19T01:00:26;19.30;22.50
10245;DHT22;5167;52.164;10.530;2023-09-19T01:02:52;19.20;22.60
10245;DHT22;5167;52.164;10.530;2023-09-19T01:05:18;19.20;22.90
10245;DHT22;5167;52.164;10.530;2023-09-19T01:07:44;19.20;22.40
10245;DHT22;5167;52.164;10.530;2023-09-19T01:10:15;19.10;22.10
10245;DHT22;5167;52.164;10.530;2023-09-19T01:18:27;19.10;23.60
10245;DHT22;5167;52.164;10.530;2023-09-19T01:21:34;19.10;24.20
10245;DHT22;5167;52.164;10.530;2023-09-19T01:27:11;19.20;23.40
10245;DHT22;5167;52.164;10.530;2023-09-19T01:29:46;19.20;23.50
10245;DHT22;5167;52.164;10.530;2023-09-19T01:32:20;19.20;22.70
10245;DHT22;5167;52.164;10.530;2023-09-19T01:34:54;19.20;23.00
10245;DHT22;5167;52.164;10.530;2023-09-19T01:37:22;19.20;22.80
10245;DHT22;5167;52.164;10.530;2023-09-19T01:40:15;19.20;23.50
10245;DHT22;5167;52.164;10.530;2023-09-19T01:43:08;19.20;22.80
10245;DHT22;5167;52.164;10.530;2023-09-19T01:50:52;19.20;23.90
10245;DHT22;5167;52.164;10.530;2023-09-19T01:53:30;19.30;23.10
10245;DHT22;5167;52.164;10.530;2023-09-19T01:55:58;19.30;24.00
10245;DHT22;5167;52.164;10.530;2023-09-19T01:58:46;19.30;23.50
10245;DHT22;5167;52.164;10.530;2023-09-19T02:01:17;19.40;23.70
10245;DHT22;5167;52.164;10.530;2023-09-19T02:03:45;19.30;23.80
10245;DHT22;5167;52.164;10.530;2023-09-19T02:06:17;19.40;23.60
10245;DHT22;5167;52.164;10.530;2023-09-19T02:08:43;19.40;23.60
10245;DHT22;5167;52.164;10.530;2023-09-19T02:11:10;19.40;22.90
10245;DHT22;5167;52.164;10.530;2023-09-19T02:13:36;19.50;23.70
10245;DHT22;5167;52.164;10.530;2023-09-19T02:16:03;19.40;23.60
10245;DHT22;5167;52.164;10.530;2023-09-19T02:18:30;19.40;23.10
10245;DHT22;5167;52.164;10.530;2023-09-19T02:20:56;19.40;22.80
10245;DHT22;5167;52.164;10.530;2023-09-19T02:23:23;19.40;23.20
10245;DHT22;5167;52.164;10.530;2023-09-19T02:25:54;19.50;25.90
10245;DHT22;5167;52.164;10.530;2023-09-19T02:28:20;19.40;22.80
10245;DHT22;5167;52.164;10.530;2023-09-19T02:30:48;19.40;22.50
10245;DHT22;5167;52.164;10.530;2023-09-19T02:33:14;19.40;22.40
10245;DHT22;5167;52.164;10.530;2023-09-19T02:35:40;19.30;22.70
10245;DHT22;5167;52.164;10.530;2023-09-19T02:38:06;19.30;22.70
10245;DHT22;5167;52.164;10.530;2023-09-19T02:40:33;19.30;22.50
10245;DHT22;5167;52.164;10.530;2023-09-19T02:43:01;19.20;22.30
10245;DHT22;5167;52.164;10.530;2023-09-19T02:45:27;19.20;22.40
10245;DHT22;5167;52.164;10.530;2023-09-19T02:47:53;19.10;22.10
10245;DHT22;5167;52.164;10.530;2023-09-19T02:50:20;19.10;22.70
10245;DHT22;5167;52.164;10.530;2023-09-19T02:52:46;19.10;22.40
10245;DHT22;5167;52.164;10.530;2023-09-19T02:55:16;19.10;23.00
10245;DHT22;5167;52.164;10.530;2023-09-19T02:57:47;19.10;22.20
10245;DHT22;5167;52.164;10.530;2023-09-19T03:00:13;19.10;21.50
10245;DHT22;5167;52.164;10.530;2023-09-19T03:02:39;19.10;23.00
10245;DHT22;5167;52.164;10.530;2023-09-19T03:05:07;19.20;23.30
10245;DHT22;5167;52.164;10.530;2023-09-19T03:07:33;19.10;22.60
10245;DHT22;5167;52.164;10.530;2023-09-19T03:09:58;19.10;23.10
10245;DHT22;5167;52.164;10.530;2023-09-19T03:12:25;19.10;22.80
10245;DHT22;5167;52.164;10.530;2023-09-19T03:14:51;19.00;22.50
10245;DHT22;5167;52.164;10.530;2023-09-19T03:17:17;19.00;22.30
10245;DHT22;5167;52.164;10.530;2023-09-19T03:19:44;19.00;22.40
10245;DHT22;5167;52.164;10.530;2023-09-19T03:22:10;19.00;22.00
10245;DHT22;5167;52.164;10.530;2023-09-19T03:24:36;18.90;22.40
10245;DHT22;5167;52.164;10.530;2023-09-19T03:27:03;18.90;22.50
10245;DHT22;5167;52.164;10.530;2023-09-19T03:29:28;18.90;23.00
10245;DHT22;5167;52.164;10.530;2023-09-19T03:31:54;18.90;22.60
10245;DHT22;5167;52.164;10.530;2023-09-19T03:34:20;18.90;22.10
10245;DHT22;5167;52.164;10.530;2023-09-19T03:36:46;18.90;22.70
10245;DHT22;5167;52.164;10.530;2023-09-19T03:39:12;18.90;22.60
10245;DHT22;5167;52.164;10.530;2023-09-19T03:41:37;18.80;22.10
10245;DHT22;5167;52.164;10.530;2023-09-19T03:44:04;18.80;21.80
10245;DHT22;5167;52.164;10.530;2023-09-19T03:46:29;18.80;22.30
10245;DHT22;5167;52.164;10.530;2023-09-19T03:48:55;18.80;22.50
10245;DHT22;5167;52.164;10.530;2023-09-19T03:51:21;18.90;25.40
10245;DHT22;5167;52.164;10.530;2023-09-19T03:53:47;18.80;22.90
10245;DHT22;5167;52.164;10.530;2023-09-19T03:56:14;18.80;22.60
10245;DHT22;5167;52.164;10.530;2023-09-19T03:58:40;18.80;21.90
10245;DHT22;5167;52.164;10.530;2023-09-19T04:01:06;18.80;21.60
10245;DHT22;5167;52.164;10.530;2023-09-19T04:03:34;18.80;21.30
10245;DHT22;5167;52.164;10.530;2023-09-19T04:06:00;18.70;21.60
10245;DHT22;5167;52.164;10.530;2023-09-19T04:08:26;18.70;21.90
10245;DHT22;5167;52.164;10.530;2023-09-19T04:10:52;18.60;21.50
10245;DHT22;5167;52.164;10.530;2023-09-19T04:13:18;18.70;21.60
10245;DHT22;5167;52.164;10.530;2023-09-19T04:15:44;18.60;21.40
10245;DHT22;5167;52.164;10.530;2023-09-19T04:18:11;18.60;21.90
10245;DHT22;5167;52.164;10.530;2023-09-19T04:20:37;18.60;22.00
10245;DHT22;5167;52.164;10.530;2023-09-19T04:23:03;18.50;22.10
10245;DHT22;5167;52.164;10.530;2023-09-19T04:25:30;18.50;21.40
10245;DHT22;5167;52.164;10.530;2023-09-19T04:27:56;18.40;21.50
10245;DHT22;5167;52.164;10.530;2023-09-19T04:30:21;18.40;21.80
10245;DHT22;5167;52.164;10.530;2023-09-19T04:32:47;18.40;21.40
10245;DHT22;5167;52.164;10.530;2023-09-19T04:35:15;18.40;21.80
10245;DHT22;5167;52.164;10.530;2023-09-19T04:37:41;18.40;21.20
10245;DHT22;5167;52.164;10.530;2023-09-19T04:40:10;18.40;21.70
10245;DHT22;5167;52.164;10.530;2023-09-19T04:42:43;18.40;21.90
10245;DHT22;5167;52.164;10.530;2023-09-19T04:45:09;18.40;21.70
10245;DHT22;5167;52.164;10.530;2023-09-19T04:47:39;18.30;21.40
10245;DHT22;5167;52.164;10.530;2023-09-19T04:50:07;18.30;22.10
10245;DHT22;5167;52.164;10.530;2023-09-19T04:52:33;18.20;25.40
10245;DHT22;5167;52.164;10.530;2023-09-19T04:54:58;18.20;24.30
10245;DHT22;5167;52.164;10.530;2023-09-19T04:57:24;18.20;20.70
10245;DHT22;5167;52.164;10.530;2023-09-19T04:59:51;18.20;21.70
10245;DHT22;5167;52.164;10.530;2023-09-19T05:02:16;18.20;20.70
10245;DHT22;5167;52.164;10.530;2023-09-19T05:04:41;18.20;20.50
10245;DHT22;5167;52.164;10.530;2023-09-19T05:07:07;18.20;20.10
10245;DHT22;5167;52.164;10.530;2023-09-19T05:09:32;18.10;19.70
10245;DHT22;5167;52.164;10.530;2023-09-19T05:12:00;18.10;19.70
10245;DHT22;5167;52.164;10.530;2023-09-19T05:14:25;18.10;19.70
10245;DHT22;5167;52.164;10.530;2023-09-19T05:16:51;18.10;19.70
10245;DHT22;5167;52.164;10.530;2023-09-19T05:19:16;18.10;19.50
10245;DHT22;5167;52.164;10.530;2023-09-19T05:21:42;18.10;19.60
10245;DHT22;5167;52.164;10.530;2023-09-19T05:24:07;18.00;18.70
10245;DHT22;5167;52.164;10.530;2023-09-19T05:26:33;18.00;18.20
10245;DHT22;5167;52.164;10.530;2023-09-19T05:28:58;18.00;18.60
10245;DHT22;5167;52.164;10.530;2023-09-19T05:31:24;18.00;19.10
10245;DHT22;5167;52.164;10.530;2023-09-19T05:33:51;18.00;19.10
10245;DHT22;5167;52.164;10.530;2023-09-19T05:36:16;18.00;19.10
10245;DHT22;5167;52.164;10.530;2023-09-19T05:38:42;18.00;19.20
10245;DHT22;5167;52.164;10.530;2023-09-19T05:41:09;17.90;19.00
10245;DHT22;5167;52.164;10.530;2023-09-19T05:43:39;17.90;18.40
10245;DHT22;5167;52.164;10.530;2023-09-19T05:46:06;18.00;19.10
10245;DHT22;5167;52.164;10.530;2023-09-19T05:48:33;18.00;18.30
10245;DHT22;5167;52.164;10.530;2023-09-19T05:50:59;18.00;18.50
10245;DHT22;5167;52.164;10.530;2023-09-19T05:53:26;18.00;18.10
10245;DHT22;5167;52.164;10.530;2023-09-19T05:55:51;18.00;17.50
10245;DHT22;5167;52.164;10.530;2023-09-19T05:58:18;18.00;18.50
10245;DHT22;5167;52.164;10.530;2023-09-19T06:00:45;17.90;18.30
10245;DHT22;5167;52.164;10.530;2023-09-19T06:03:13;17.90;18.10
10245;DHT22;5167;52.164;10.530;2023-09-19T06:05:39;18.00;17.30
10245;DHT22;5167;52.164;10.530;2023-09-19T06:08:07;17.90;16.80
10245;DHT22;5167;52.164;10.530;2023-09-19T06:10:33;18.00;17.60
10245;DHT22;5167;52.164;10.530;2023-09-19T06:13:01;18.00;16.40
10245;DHT22;5167;52.164;10.530;2023-09-19T06:15:29;18.00;15.90
10245;DHT22;5167;52.164;10.530;2023-09-19T06:17:58;18.00;16.50
10245;DHT22;5167;52.164;10.530;2023-09-19T06:20:25;18.00;17.10
10245;DHT22;5167;52.164;10.530;2023-09-19T06:22:52;18.00;17.40
10245;DHT22;5167;52.164;10.530;2023-09-19T06:25:18;18.00;17.50
10245;DHT22;5167;52.164;10.530;2023-09-19T06:27:48;18.00;16.60
10245;DHT22;5167;52.164;10.530;2023-09-19T06:30:14;17.90;15.90
10245;DHT22;5167;52.164;10.530;2023-09-19T06:32:41;18.00;16.50
10245;DHT22;5167;52.164;10.530;2023-09-19T06:35:10;18.00;17.20
10245;DHT22;5167;52.164;10.530;2023-09-19T06:37:37;18.00;16.10
10245;DHT22;5167;52.164;10.530;2023-09-19T06:40:06;18.00;15.90
10245;DHT22;5167;52.164;10.530;2023-09-19T06:42:32;18.00;16.10
10245;DHT22;5167;52.164;10.530;2023-09-19T06:44:58;18.10;14.30
10245;DHT22;5167;52.164;10.530;2023-09-19T06:47:23;18.00;13.10
10245;DHT22;5167;52.164;10.530;2023-09-19T06:49:51;18.00;13.00
10245;DHT22;5167;52.164;10.530;2023-09-19T06:52:17;18.00;12.50
10245;DHT22;5167;52.164;10.530;2023-09-19T06:54:44;18.00;11.80
10245;DHT22;5167;52.164;10.530;2023-09-19T06:57:10;18.10;12.60
10245;DHT22;5167;52.164;10.530;2023-09-19T06:59:35;18.10;14.40
10245;DHT22;5167;52.164;10.530;2023-09-19T07:02:02;18.20;11.20
10245;DHT22;5167;52.164;10.530;2023-09-19T07:04:28;18.30;10.90
10245;DHT22;5167;52.164;10.530;2023-09-19T07:06:53;18.30;10.00
10245;DHT22;5167;52.164;10.530;2023-09-19T07:09:19;18.40;8.80
10245;DHT22;5167;52.164;10.530;2023-09-19T07:11:45;18.50;8.10
10245;DHT22;5167;52.164;10.530;2023-09-19T07:14:11;18.70;9.00
10245;DHT22;5167;52.164;10.530;2023-09-19T07:16:37;18.80;7.60
10245;DHT22;5167;52.164;10.530;2023-09-19T07:19:04;18.90;5.90
10245;DHT22;5167;52.164;10.530;2023-09-19T07:21:30;19.00;6.20
10245;DHT22;5167;52.164;10.530;2023-09-19T07:23:55;19.10;5.40
10245;DHT22;5167;52.164;10.530;2023-09-19T07:26:21;19.20;5.10
10245;DHT22;5167;52.164;10.530;2023-09-19T07:28:46;19.50;5.00
10245;DHT22;5167;52.164;10.530;2023-09-19T07:31:12;19.50;5.00
10245;DHT22;5167;52.164;10.530;2023-09-19T07:33:39;19.60;5.00
10245;DHT22;5167;52.164;10.530;2023-09-19T07:36:05;19.60;5.00
10245;DHT22;5167;52.164;10.530;2023-09-19T07:38:31;19.80;5.00
10245;DHT22;5167;52.164;10.530;2023-09-19T07:41:01;19.80;5.00
10245;DHT22;5167;52.164;10.530;2023-09-19T07:43:28;19.80;5.00
10245;DHT22;5167;52.164;10.530;2023-09-19T07:45:53;19.90;5.00
10245;DHT22;5167;52.164;10.530;2023-09-19T07:48:19;19.80;5.00
10245;DHT22;5167;52.164;10.530;2023-09-19T07:50:44;19.80;5.00
10245;DHT22;5167;52.164;10.530;2023-09-19T07:53:10;19.80;5.00
10245;DHT22;5167;52.164;10.530;2023-09-19T07:55:38;19.90;5.00
10245;DHT22;5167;52.164;10.530;2023-09-19T07:58:06;19.80;5.00
10245;DHT22;5167;52.164;10.530;2023-09-19T08:00:32;19.80;5.00
10245;DHT22;5167;52.164;10.530;2023-09-19T08:03:00;19.80;5.00
10245;DHT22;5167;52.164;10.530;2023-09-19T08:05:26;19.80;5.00
10245;DHT22;5167;52.164;10.530;2023-09-19T08:07:51;19.80;5.00
10245;DHT22;5167;52.164;10.530;2023-09-19T08:10:18;19.80;5.00
10245;DHT22;5167;52.164;10.530;2023-09-19T08:12:45;19.80;5.00
10245;DHT22;5167;52.164;10.530;2023-09-19T08:15:13;19.80;5.00
10245;DHT22;5167;52.164;10.530;2023-09-19T08:17:38;19.80;5.00
10245;DHT22;5167;52.164;10.530;2023-09-19T08:20:04;19.80;5.00
10245;DHT22;5167;52.164;10.530;2023-09-19T08:22:30;19.80;5.00
10245;DHT22;5167;52.164;10.530;2023-09-19T08:24:57;19.80;5.00
10245;DHT22;5167;52.164;10.530;2023-09-19T08:27:23;19.80;5.00
10245;DHT22;5167;52.164;10.530;2023-09-19T08:29:52;19.70;5.00
10245;DHT22;5167;52.164;10.530;2023-09-19T08:32:18;19.70;5.00
10245;DHT22;5167;52.164;10.530;2023-09-19T08:34:49;19.70;5.00
10245;DHT22;5167;52.164;10.530;2023-09-19T08:37:14;19.60;5.00
10245;DHT22;5167;52.164;10.530;2023-09-19T08:39:41;19.80;5.00
10245;DHT22;5167;52.164;10.530;2023-09-19T08:42:06;19.70;5.00
10245;DHT22;5167;52.164;10.530;2023-09-19T08:44:36;19.80;5.00
10245;DHT22;5167;52.164;10.530;2023-09-19T08:47:14;19.90;5.00
10245;DHT22;5167;52.164;10.530;2023-09-19T08:50:09;20.00;5.00
10245;DHT22;5167;52.164;10.530;2023-09-19T08:52:43;20.00;5.00
10245;DHT22;5167;52.164;10.530;2023-09-19T08:55:12;20.00;5.00
10245;DHT22;5167;52.164;10.530;2023-09-19T08:57:38;20.00;5.00
10245;DHT22;5167;52.164;10.530;2023-09-19T09:00:07;20.00;5.00
10245;DHT22;5167;52.164;10.530;2023-09-19T09:02:41;20.10;5.00
10245;DHT22;5167;52.164;10.530;2023-09-19T09:05:08;20.20;5.00
10245;DHT22;5167;52.164;10.530;2023-09-19T09:07:36;20.40;5.00
10245;DHT22;5167;52.164;10.530;2023-09-19T09:10:03;20.40;5.00
10245;DHT22;5167;52.164;10.530;2023-09-19T09:12:29;20.40;5.00
10245;DHT22;5167;52.164;10.530;2023-09-19T09:14:55;20.50;5.00
10245;DHT22;5167;52.164;10.530;2023-09-19T09:17:26;20.50;5.00
10245;DHT22;5167;52.164;10.530;2023-09-19T09:19:53;20.50;5.00
10245;DHT22;5167;52.164;10.530;2023-09-19T09:22:18;20.50;5.00
10245;DHT22;5167;52.164;10.530;2023-09-19T09:24:57;20.50;5.00
10245;DHT22;5167;52.164;10.530;2023-09-19T09:27:31;20.50;5.00
10245;DHT22;5167;52.164;10.530;2023-09-19T09:29:59;20.50;5.00
10245;DHT22;5167;52.164;10.530;2023-09-19T09:32:29;20.50;5.00
10245;DHT22;5167;52.164;10.530;2023-09-19T09:35:00;20.50;5.00
10245;DHT22;5167;52.164;10.530;2023-09-19T09:37:27;20.60;5.00
10245;DHT22;5167;52.164;10.530;2023-09-19T09:39:57;20.60;5.00
10245;DHT22;5167;52.164;10.530;2023-09-19T09:42:31;20.60;5.00
10245;DHT22;5167;52.164;10.530;2023-09-19T09:47:42;20.60;5.00
10245;DHT22;5167;52.164;10.530;2023-09-19T09:50:08;20.70;5.00
10245;DHT22;5167;52.164;10.530;2023-09-19T09:52:46;20.70;5.00
10245;DHT22;5167;52.164;10.530;2023-09-19T09:55:12;20.70;5.00
10245;DHT22;5167;52.164;10.530;2023-09-19T09:57:38;20.70;5.00
10245;DHT22;5167;52.164;10.530;2023-09-19T10:00:10;20.70;5.00
10245;DHT22;5167;52.164;10.530;2023-09-19T10:02:38;20.70;5.00
10245;DHT22;5167;52.164;10.530;2023-09-19T10:05:15;20.80;5.00
10245;DHT22;5167;52.164;10.530;2023-09-19T10:07:54;20.80;5.00
10245;DHT22;5167;52.164;10.530;2023-09-19T10:10:34;21.00;5.00
10245;DHT22;5167;52.164;10.530;2023-09-19T10:13:10;21.00;5.00
10245;DHT22;5167;52.164;10.530;2023-09-19T10:15:42;21.00;5.00
10245;DHT22;5167;52.164;10.530;2023-09-19T10:18:14;21.00;5.00
10245;DHT22;5167;52.164;10.530;2023-09-19T10:20:44;21.00;5.00
10245;DHT22;5167;52.164;10.530;2023-09-19T10:23:11;21.20;5.00
10245;DHT22;5167;52.164;10.530;2023-09-19T10:25:40;21.20;5.00
10245;DHT22;5167;52.164;10.530;2023-09-19T10:28:07;21.10;5.00
10245;DHT22;5167;52.164;10.530;2023-09-19T10:30:39;21.20;5.00
10245;DHT22;5167;52.164;10.530;2023-09-19T10:33:13;21.30;5.00
10245;DHT22;5167;52.164;10.530;2023-09-19T10:35:45;21.40;5.00
10245;DHT22;5167;52.164;10.530;2023-09-19T10:38:12;21.40;5.00
10245;DHT22;5167;52.164;10.530;2023-09-19T10:40:39;21.30;5.00
10245;DHT22;5167;52.164;10.530;2023-09-19T10:43:13;21.20;5.00
10245;DHT22;5167;52.164;10.530;2023-09-19T10:45:44;21.30;5.00
10245;DHT22;5167;52.164;10.530;2023-09-19T10:48:10;21.40;5.00
10245;DHT22;5167;52.164;10.530;2023-09-19T10:51:05;21.30;5.00
10245;DHT22;5167;52.164;10.530;2023-09-19T10:56:08;21.40;5.00
10245;DHT22;5167;52.164;10.530;2023-09-19T10:58:42;21.40;5.00
10245;DHT22;5167;52.164;10.530;2023-09-19T11:01:11;21.50;5.00
10245;DHT22;5167;52.164;10.530;2023-09-19T11:03:43;21.50;5.00
10245;DHT22;5167;52.164;10.530;2023-09-19T11:06:14;21.70;5.00
10245;DHT22;5167;52.164;10.530;2023-09-19T11:17:32;21.60;5.00
10245;DHT22;5167;52.164;10.530;2023-09-19T11:36:14;21.70;5.00
10245;DHT22;5167;52.164;10.530;2023-09-19T11:39:01;21.80;5.00
10245;DHT22;5167;52.164;10.530;2023-09-19T11:41:37;21.80;5.00
10245;DHT22;5167;52.164;10.530;2023-09-19T11:46:33;21.80;5.00
10245;DHT22;5167;52.164;10.530;2023-09-19T11:49:08;21.90;5.00
10245;DHT22;5167;52.164;10.530;2023-09-19T11:51:43;21.80;5.00
10245;DHT22;5167;52.164;10.530;2023-09-19T11:54:13;21.70;5.00
10245;DHT22;5167;52.164;10.530;2023-09-19T11:56:49;21.70;5.00
10245;DHT22;5167;52.164;10.530;2023-09-19T11:59:29;21.80;5.00
10245;DHT22;5167;52.164;10.530;2023-09-19T12:02:05;21.80;5.00
10245;DHT22;5167;52.164;10.530;2023-09-19T12:04:43;21.90;5.00
10245;DHT22;5167;52.164;10.530;2023-09-19T12:07:09;22.00;5.00
10245;DHT22;5167;52.164;10.530;2023-09-19T12:09:46;21.90;5.00
10245;DHT22;5167;52.164;10.530;2023-09-19T12:12:20;22.00;5.00
10245;DHT22;5167;52.164;10.530;2023-09-19T12:14:50;21.90;5.00
10245;DHT22;5167;52.164;10.530;2023-09-19T12:17:17;21.90;5.00
10245;DHT22;5167;52.164;10.530;2023-09-19T12:19:53;21.90;5.00
10245;DHT22;5167;52.164;10.530;2023-09-19T12:22:19;21.90;5.00
10245;DHT22;5167;52.164;10.530;2023-09-19T12:24:46;21.90;5.00
10245;DHT22;5167;52.164;10.530;2023-09-19T12:27:12;21.90;5.00
10245;DHT22;5167;52.164;10.530;2023-09-19T12:29:57;21.90;5.00
10245;DHT22;5167;52.164;10.530;2023-09-19T12:32:34;21.90;5.00
10245;DHT22;5167;52.164;10.530;2023-09-19T12:35:01;21.90;5.00
10245;DHT22;5167;52.164;10.530;2023-09-19T12:37:32;22.20;5.00
10245;DHT22;5167;52.164;10.530;2023-09-19T12:40:08;22.00;5.00
10245;DHT22;5167;52.164;10.530;2023-09-19T12:42:44;22.00;5.00
10245;DHT22;5167;52.164;10.530;2023-09-19T12:45:11;22.00;5.00
10245;DHT22;5167;52.164;10.530;2023-09-19T12:47:39;22.00;5.00
10245;DHT22;5167;52.164;10.530;2023-09-19T12:52:48;22.20;5.00
10245;DHT22;5167;52.164;10.530;2023-09-19T12:55:30;22.30;5.00
10245;DHT22;5167;52.164;10.530;2023-09-19T12:58:13;22.30;5.00
10245;DHT22;5167;52.164;10.530;2023-09-19T13:00:42;22.20;5.00
10245;DHT22;5167;52.164;10.530;2023-09-19T13:05:51;22.30;5.00
10245;DHT22;5167;52.164;10.530;2023-09-19T13:08:30;22.30;5.00
10245;DHT22;5167;52.164;10.530;2023-09-19T13:11:10;22.30;5.00
10245;DHT22;5167;52.164;10.530;2023-09-19T13:16:19;22.20;5.00
10245;DHT22;5167;52.164;10.530;2023-09-19T13:18:51;22.20;5.00
10245;DHT22;5167;52.164;10.530;2023-09-19T13:21:31;22.20;5.00
10245;DHT22;5167;52.164;10.530;2023-09-19T13:24:24;22.30;5.00
10245;DHT22;5167;52.164;10.530;2023-09-19T13:26:53;22.20;5.00
10245;DHT22;5167;52.164;10.530;2023-09-19T13:29:19;22.20;5.00
10245;DHT22;5167;52.164;10.530;2023-09-19T13:31:51;22.20;5.00
10245;DHT22;5167;52.164;10.530;2023-09-19T13:34:18;22.20;5.00
10245;DHT22;5167;52.164;10.530;2023-09-19T13:36:45;22.30;5.00
10245;DHT22;5167;52.164;10.530;2023-09-19T13:39:12;22.30;5.00
10245;DHT22;5167;52.164;10.530;2023-09-19T13:41:38;22.30;5.00
10245;DHT22;5167;52.164;10.530;2023-09-19T13:44:04;22.40;5.00
10245;DHT22;5167;52.164;10.530;2023-09-19T13:46:30;22.40;5.00
10245;DHT22;5167;52.164;10.530;2023-09-19T13:48:59;22.40;5.00
10245;DHT22;5167;52.164;10.530;2023-09-19T13:51:26;22.40;5.00
10245;DHT22;5167;52.164;10.530;2023-09-19T13:53:51;22.40;5.00
10245;DHT22;5167;52.164;10.530;2023-09-19T13:56:17;22.40;5.00
10245;DHT22;5167;52.164;10.530;2023-09-19T13:58:42;22.30;5.00
10245;DHT22;5167;52.164;10.530;2023-09-19T14:01:08;22.30;5.00
10245;DHT22;5167;52.164;10.530;2023-09-19T14:03:41;22.30;5.00
10245;DHT22;5167;52.164;10.530;2023-09-19T14:06:12;22.30;5.00
10245;DHT22;5167;52.164;10.530;2023-09-19T14:08:37;22.30;5.00
10245;DHT22;5167;52.164;10.530;2023-09-19T14:11:07;22.30;5.00
10245;DHT22;5167;52.164;10.530;2023-09-19T14:13:32;22.40;5.00
10245;DHT22;5167;52.164;10.530;2023-09-19T14:16:06;22.40;5.00
10245;DHT22;5167;52.164;10.530;2023-09-19T14:18:32;22.30;5.00
10245;DHT22;5167;52.164;10.530;2023-09-19T14:20:57;22.30;5.00
10245;DHT22;5167;52.164;10.530;2023-09-19T14:23:23;22.30;5.00
10245;DHT22;5167;52.164;10.530;2023-09-19T14:25:50;22.30;5.00
10245;DHT22;5167;52.164;10.530;2023-09-19T14:28:17;22.30;5.00
10245;DHT22;5167;52.164;10.530;2023-09-19T14:30:42;22.30;5.00
10245;DHT22;5167;52.164;10.530;2023-09-19T14:33:08;22.40;5.00
10245;DHT22;5167;52.164;10.530;2023-09-19T14:35:36;22.50;5.00
10245;DHT22;5167;52.164;10.530;2023-09-19T14:38:02;22.30;5.00
10245;DHT22;5167;52.164;10.530;2023-09-19T14:40:28;22.30;5.00
10245;DHT22;5167;52.164;10.530;2023-09-19T14:42:53;22.30;5.00
10245;DHT22;5167;52.164;10.530;2023-09-19T14:45:19;22.20;5.00
10245;DHT22;5167;52.164;10.530;2023-09-19T14:47:46;22.20;5.00
10245;DHT22;5167;52.164;10.530;2023-09-19T14:50:12;22.10;5.00
10245;DHT22;5167;52.164;10.530;2023-09-19T14:52:38;22.10;5.00
10245;DHT22;5167;52.164;10.530;2023-09-19T14:55:06;22.00;5.00
10245;DHT22;5167;52.164;10.530;2023-09-19T14:57:32;22.00;5.00
10245;DHT22;5167;52.164;10.530;2023-09-19T14:59:58;22.00;5.00
10245;DHT22;5167;52.164;10.530;2023-09-19T15:02:24;22.00;5.00
10245;DHT22;5167;52.164;10.530;2023-09-19T15:04:50;22.00;5.00
10245;DHT22;5167;52.164;10.530;2023-09-19T15:07:16;22.00;5.00
10245;DHT22;5167;52.164;10.530;2023-09-19T15:09:42;22.00;5.00
10245;DHT22;5167;52.164;10.530;2023-09-19T15:12:09;22.10;5.00
10245;DHT22;5167;52.164;10.530;2023-09-19T15:14:35;22.10;5.00
10245;DHT22;5167;52.164;10.530;2023-09-19T15:17:01;22.00;5.00
10245;DHT22;5167;52.164;10.530;2023-09-19T15:19:30;22.00;5.00
10245;DHT22;5167;52.164;10.530;2023-09-19T15:21:55;22.00;5.00
10245;DHT22;5167;52.164;10.530;2023-09-19T15:24:23;22.10;5.00
10245;DHT22;5167;52.164;10.530;2023-09-19T15:26:48;22.10;5.00
10245;DHT22;5167;52.164;10.530;2023-09-19T15:29:15;22.10;5.00
10245;DHT22;5167;52.164;10.530;2023-09-19T15:31:41;22.10;5.00
10245;DHT22;5167;52.164;10.530;2023-09-19T15:34:06;22.00;5.00
10245;DHT22;5167;52.164;10.530;2023-09-19T15:36:33;22.00;5.00
10245;DHT22;5167;52.164;10.530;2023-09-19T15:39:06;22.10;5.00
10245;DHT22;5167;52.164;10.530;2023-09-19T15:41:44;22.10;5.00
10245;DHT22;5167;52.164;10.530;2023-09-19T15:44:18;22.10;5.00
10245;DHT22;5167;52.164;10.530;2023-09-19T15:46:47;22.20;5.00
10245;DHT22;5167;52.164;10.530;2023-09-19T15:49:14;22.10;5.00
10245;DHT22;5167;52.164;10.530;2023-09-19T15:51:39;22.10;5.00
10245;DHT22;5167;52.164;10.530;2023-09-19T15:54:13;22.00;5.00
10245;DHT22;5167;52.164;10.530;2023-09-19T15:56:47;22.00;5.00
10245;DHT22;5167;52.164;10.530;2023-09-19T15:59:14;21.90;5.00
10245;DHT22;5167;52.164;10.530;2023-09-19T16:01:41;22.00;5.00
10245;DHT22;5167;52.164;10.530;2023-09-19T16:04:08;22.00;5.00
10245;DHT22;5167;52.164;10.530;2023-09-19T16:06:35;22.00;5.00
10245;DHT22;5167;52.164;10.530;2023-09-19T16:09:01;22.00;5.00
10245;DHT22;5167;52.164;10.530;2023-09-19T16:11:31;22.10;5.00
10245;DHT22;5167;52.164;10.530;2023-09-19T16:13:57;22.00;5.00
10245;DHT22;5167;52.164;10.530;2023-09-19T16:16:23;22.00;5.00
10245;DHT22;5167;52.164;10.530;2023-09-19T16:18:54;22.00;5.00
10245;DHT22;5167;52.164;10.530;2023-09-19T16:21:31;22.00;5.00
10245;DHT22;5167;52.164;10.530;2023-09-19T16:23:58;21.90;5.00
10245;DHT22;5167;52.164;10.530;2023-09-19T16:26:25;22.00;5.00
10245;DHT22;5167;52.164;10.530;2023-09-19T16:28:53;22.00;5.00
10245;DHT22;5167;52.164;10.530;2023-09-19T16:31:19;22.00;5.00
10245;DHT22;5167;52.164;10.530;2023-09-19T16:33:46;21.90;5.00
10245;DHT22;5167;52.164;10.530;2023-09-19T16:36:16;22.00;5.00
10245;DHT22;5167;52.164;10.530;2023-09-19T16:38:43;21.90;5.00
10245;DHT22;5167;52.164;10.530;2023-09-19T16:41:09;21.80;5.00
10245;DHT22;5167;52.164;10.530;2023-09-19T16:43:35;21.70;5.00